EDXW

Westerland Sylt Airport

Westerland, Germany
TAF EDXW 210800Z 2109/2118 04006KT CAVOK BECMG 2110/2112 34010KT
Issued Valid From Valid To
Jul-21 @ 08:00 UTC
(2 hours ago)
Jul-21 @ 09:00 UTC
(44 minutes ago)
Jul-21 @ 18:00 UTC
(in 8 hours)
Jul-21 @ 09:00 to Jul-21 @ 10:00
TAF EDXW 210800Z 2109/2118 04006KT CAVOK
Wind Visibility Clouds Conditions
40° at 6 knots 10,000+ meters
  • No significant clouds
Becoming Jul-21 @ 10:00 to Jul-21 @ 18:00
BECMG 2110/2112 34010KT
Wind Visibility Clouds Conditions
340° at 10 knots 10,000+ meters
  • No significant clouds
TAF EDXW 210800Z 2109/2118 04006KT CAVOK BECMG 2110/2112 34010KT
Issued Jul-21 @ 08:00 UTC
(2 hours ago)
Valid From Jul-21 @ 09:00 UTC
(44 minutes ago)
Valid To Jul-21 @ 18:00 UTC
(in 8 hours)
Jul-21 @ 09:00 - Jul-21 @ 10:00
Wind Visibility
40° at 6 knots 10,000+ meters
Clouds
  • No significant clouds
Conditions
Becoming Jul-21 @ 10:00 - Jul-21 @ 18:00
Wind Visibility
340° at 10 knots 10,000+ meters
Clouds
  • No significant clouds
Conditions